Terminal Aerodrome Forecast
Issued by NWS

Current Version | Previous Version | Graphics & Text | Print | Product List | Glossary On
Versions: 1 2 3 4 5 6 7 8 9 10 11 12 13 14 15 16 17 18 19 20 21 22
276
FTUS41 KRLX 231138
TAFCKB
TAF
KCKB 231138Z 2312/2412 12007KT P6SM BKN090
     FM231900 14010G19KT P6SM SHRA OVC050
     FM240000 19008G18KT 2SM SHRA SCT015 OVC035
     FM240100 20008KT P6SM SHRA OVC035
     FM240800 22006KT P6SM BKN015=

USA.gov is the U.S. government's official web portal to all federal, state and local government web resources and services.